createdAt,value
2023-03-18T00:02:13.134Z,0.95
2023-03-18T00:04:40.729Z,0.90
2023-03-18T00:07:07.189Z,0.95
2023-03-18T00:09:33.961Z,0.90
2023-03-18T00:12:00.476Z,1.00
2023-03-18T00:14:27.996Z,0.95
2023-03-18T00:16:55.047Z,1.10
2023-03-18T00:19:21.843Z,1.00
2023-03-18T00:21:49.008Z,0.85
2023-03-18T00:24:16.703Z,1.20
2023-03-18T00:26:44.013Z,1.13
2023-03-18T00:29:10.800Z,1.08
2023-03-18T00:31:38.447Z,0.82
2023-03-18T00:34:05.316Z,0.90
2023-03-18T00:36:32.318Z,1.00
2023-03-18T00:39:03.334Z,0.90
2023-03-18T00:41:32.915Z,1.00
2023-03-18T00:43:59.553Z,1.10
2023-03-18T00:46:34.912Z,0.82
2023-03-18T00:49:05.488Z,0.98
2023-03-18T00:51:34.649Z,0.93
2023-03-18T00:54:07.119Z,0.80
2023-03-18T00:56:35.911Z,0.80
2023-03-18T00:59:02.915Z,1.13
2023-03-18T01:01:29.888Z,0.85
2023-03-18T01:03:59.940Z,1.17
2023-03-18T01:06:30.756Z,1.08
2023-03-18T01:08:59.157Z,1.02
2023-03-18T01:11:26.485Z,0.90
2023-03-18T01:13:53.877Z,0.93
2023-03-18T01:16:22.333Z,1.02
2023-03-18T01:18:49.172Z,1.25
2023-03-18T01:21:16.998Z,0.90
2023-03-18T01:23:49.270Z,1.00
2023-03-18T01:26:16.744Z,0.80
2023-03-18T01:28:44.991Z,1.05
2023-03-18T01:31:12.900Z,0.90
2023-03-18T01:33:41.477Z,0.80
2023-03-18T01:36:08.524Z,1.08
2023-03-18T01:38:35.403Z,1.00
2023-03-18T01:41:10.485Z,0.80
2023-03-18T01:43:40.595Z,0.90
2023-03-18T01:46:34.246Z,0.98
2023-03-18T01:49:13.898Z,0.98
2023-03-18T01:51:43.481Z,0.90
2023-03-18T01:54:12.326Z,1.00
2023-03-18T01:56:41.419Z,0.93
2023-03-18T01:59:09.251Z,1.00
2023-03-18T02:01:45.077Z,1.00
2023-03-18T02:04:12.336Z,1.00
2023-03-18T02:06:42.327Z,0.90
2023-03-18T02:09:09.611Z,0.82
2023-03-18T02:11:40.739Z,1.20
2023-03-18T02:14:10.747Z,0.75
2023-03-18T02:16:51.118Z,1.00
2023-03-18T02:19:39.463Z,0.65
2023-03-18T02:22:33.198Z,0.77
2023-03-18T02:25:24.796Z,0.90
2023-03-18T02:27:56.178Z,1.00
2023-03-18T02:30:33.129Z,1.00
2023-03-18T02:33:02.134Z,1.00
2023-03-18T02:35:29.968Z,0.75
2023-03-18T02:37:59.578Z,1.00
2023-03-18T02:40:33.724Z,0.82
2023-03-18T02:43:22.632Z,1.00
2023-03-18T02:45:57.269Z,0.90
2023-03-18T02:48:28.597Z,0.90
2023-03-18T02:50:56.207Z,1.02
2023-03-18T02:53:22.763Z,1.08
2023-03-18T02:55:49.306Z,0.95
2023-03-18T02:58:16.532Z,1.00
2023-03-18T03:00:43.778Z,1.00
2023-03-18T03:03:10.899Z,1.17
2023-03-18T03:05:38.091Z,0.85
2023-03-18T03:08:05.552Z,1.00
2023-03-18T03:10:36.494Z,1.10
2023-03-18T03:13:03.697Z,1.13
2023-03-18T03:15:30.460Z,0.90
2023-03-18T03:17:59.221Z,0.98
2023-03-18T03:20:25.946Z,0.90
2023-03-18T03:22:53.243Z,1.00
2023-03-18T03:25:20.471Z,0.90
2023-03-18T03:27:48.271Z,1.20
2023-03-18T03:30:15.163Z,0.90
2023-03-18T03:32:42.619Z,0.90
2023-03-18T03:35:14.073Z,0.93
2023-03-18T03:37:40.964Z,0.98
2023-03-18T03:40:08.597Z,0.90
2023-03-18T03:42:35.111Z,1.05
2023-03-18T03:45:03.418Z,1.10
2023-03-18T03:47:29.969Z,1.25
2023-03-18T03:49:56.866Z,0.95
2023-03-18T03:52:23.442Z,1.15
2023-03-18T03:54:50.739Z,0.88
2023-03-18T03:57:17.973Z,1.02
2023-03-18T03:59:44.515Z,1.10
2023-03-18T04:02:15.104Z,1.00
2023-03-18T04:04:41.719Z,1.08
2023-03-18T04:07:16.310Z,0.90
2023-03-18T04:09:43.034Z,0.80
2023-03-18T04:12:09.859Z,0.90
2023-03-18T04:14:36.545Z,1.23
2023-03-18T04:17:03.258Z,1.00
2023-03-18T04:19:30.427Z,1.00
2023-03-18T04:21:56.976Z,1.00
2023-03-18T04:24:24.423Z,1.00
2023-03-18T04:26:50.981Z,0.80
2023-03-18T04:29:17.460Z,1.10
2023-03-18T04:31:44.812Z,0.95
2023-03-18T04:34:11.540Z,1.05
2023-03-18T04:36:38.302Z,1.08
2023-03-18T04:39:05.040Z,0.90
2023-03-18T04:41:32.440Z,1.15
2023-03-18T04:44:02.449Z,0.75
2023-03-18T04:46:38.523Z,0.98
2023-03-18T04:49:05.246Z,1.10
2023-03-18T04:51:32.015Z,0.98
2023-03-18T04:53:58.880Z,1.02
2023-03-18T04:56:29.530Z,1.00
2023-03-18T04:58:57.964Z,1.10
2023-03-18T05:01:29.406Z,1.00
2023-03-18T05:03:56.616Z,1.02
2023-03-18T05:06:30.211Z,1.50
2023-03-18T05:09:02.208Z,1.05
2023-03-18T05:11:33.155Z,1.20
2023-03-18T05:14:06.810Z,1.13
2023-03-18T05:16:40.433Z,1.10
2023-03-18T05:19:08.535Z,1.15
2023-03-18T05:21:38.827Z,1.02
2023-03-18T05:24:05.765Z,1.17
2023-03-18T05:26:38.752Z,0.98
2023-03-18T05:29:09.149Z,0.90
2023-03-18T05:31:58.714Z,1.35
2023-03-18T05:34:27.206Z,1.00
2023-03-18T05:36:54.420Z,0.98
2023-03-18T05:39:21.853Z,0.90
2023-03-18T05:41:48.375Z,0.93
2023-03-18T05:44:22.264Z,1.00
2023-03-18T05:46:52.216Z,0.80
2023-03-18T05:49:34.231Z,0.90
2023-03-18T05:55:01.167Z,0.98
2023-03-18T05:57:32.672Z,1.00
2023-03-18T06:00:03.070Z,1.00
2023-03-18T06:02:42.352Z,0.90
2023-03-18T06:05:10.900Z,0.90
2023-03-18T06:07:37.615Z,0.90
2023-03-18T06:10:04.525Z,1.05
2023-03-18T06:12:31.041Z,1.10
2023-03-18T06:14:58.240Z,0.70
2023-03-18T06:17:26.079Z,0.90
2023-03-18T06:19:52.599Z,1.00
2023-03-18T06:22:19.129Z,0.75
2023-03-18T06:24:48.208Z,0.98
2023-03-18T06:27:16.367Z,0.80
2023-03-18T06:29:45.351Z,1.05
2023-03-18T06:32:16.113Z,0.80
2023-03-18T06:34:43.610Z,0.93
2023-03-18T06:37:10.805Z,0.93
2023-03-18T06:39:37.844Z,1.10
2023-03-18T06:42:07.834Z,1.00
2023-03-18T06:44:37.825Z,0.80
2023-03-18T06:47:13.144Z,0.90
2023-03-18T06:49:47.017Z,1.00
2023-03-18T06:52:19.107Z,0.93
2023-03-18T06:54:47.682Z,0.90
2023-03-18T06:57:16.252Z,0.90
2023-03-18T06:59:42.740Z,1.00
2023-03-18T07:02:10.834Z,0.85
2023-03-18T07:04:37.457Z,0.88
2023-03-18T07:07:04.728Z,0.82
2023-03-18T07:09:33.425Z,0.88
2023-03-18T07:12:00.638Z,0.85
2023-03-18T07:14:28.440Z,0.80
2023-03-18T07:16:56.089Z,1.40
2023-03-18T07:19:23.084Z,0.90
2023-03-18T07:21:50.661Z,0.90
2023-03-18T07:24:17.564Z,0.98
2023-03-18T07:26:44.041Z,0.90
2023-03-18T07:29:10.586Z,0.90
2023-03-18T07:31:38.380Z,0.85
2023-03-18T07:34:05.125Z,0.95
2023-03-18T07:36:31.845Z,1.10
2023-03-18T07:38:59.835Z,0.98
2023-03-18T07:41:26.670Z,0.70
2023-03-18T07:43:53.717Z,1.00
2023-03-18T07:46:20.883Z,1.00
2023-03-18T07:48:47.989Z,1.10
2023-03-18T07:51:15.625Z,0.90
2023-03-18T07:53:43.435Z,1.00
2023-03-18T07:56:10.015Z,1.05
2023-03-18T07:58:37.599Z,0.70
2023-03-18T08:01:04.892Z,0.90
2023-03-18T08:03:31.602Z,0.93
2023-03-18T08:05:58.130Z,0.93
2023-03-18T08:08:24.856Z,0.95
2023-03-18T08:10:52.311Z,0.93
2023-03-18T08:13:18.837Z,0.95
2023-03-18T08:15:45.280Z,1.00
2023-03-18T08:18:11.725Z,0.90
2023-03-18T08:20:38.381Z,1.20
2023-03-18T08:23:04.899Z,0.88
2023-03-18T08:25:32.725Z,0.80
2023-03-18T08:27:59.844Z,0.90
2023-03-18T08:30:28.690Z,0.88
2023-03-18T08:32:56.014Z,0.80
2023-03-18T08:35:23.459Z,0.90
2023-03-18T08:37:51.563Z,0.82
2023-03-18T08:40:20.315Z,0.77
2023-03-18T08:42:47.055Z,1.08
2023-03-18T08:45:13.651Z,0.82
2023-03-18T08:47:40.235Z,0.80
2023-03-18T08:50:07.018Z,0.90
2023-03-18T08:52:33.565Z,0.80
2023-03-18T08:55:00.229Z,0.95
2023-03-18T08:57:27.938Z,1.00
2023-03-18T08:59:54.542Z,0.80
2023-03-18T09:02:21.621Z,0.80
2023-03-18T09:04:48.265Z,1.00
2023-03-18T09:07:16.395Z,0.90
2023-03-18T09:09:44.643Z,1.00
2023-03-18T09:12:12.538Z,0.60
2023-03-18T09:14:40.414Z,0.95
2023-03-18T09:17:07.028Z,1.02
2023-03-18T09:19:33.522Z,0.80
2023-03-18T09:22:00.123Z,0.75
2023-03-18T09:24:26.677Z,0.73
2023-03-18T09:26:53.197Z,0.70
2023-03-18T09:29:19.754Z,0.68
2023-03-18T09:31:46.934Z,0.90
2023-03-18T09:34:14.436Z,0.85
2023-03-18T09:36:42.138Z,1.00
2023-03-18T09:39:10.000Z,0.80
2023-03-18T09:41:50.900Z,0.73
2023-03-18T09:44:26.556Z,0.90
2023-03-18T09:47:18.725Z,0.98
2023-03-18T09:50:09.493Z,0.93
2023-03-18T09:52:43.941Z,0.60
2023-03-18T09:55:31.149Z,0.80
2023-03-18T09:58:03.141Z,0.80
2023-03-18T10:00:31.461Z,0.98
2023-03-18T10:03:06.373Z,0.80
2023-03-18T10:05:40.529Z,0.80
2023-03-18T10:08:23.440Z,0.80
2023-03-18T10:10:53.029Z,0.80
2023-03-18T10:13:29.288Z,0.80
2023-03-18T10:15:59.637Z,0.70
2023-03-18T10:18:39.517Z,0.75
2023-03-18T10:21:42.283Z,0.63
2023-03-18T10:24:25.334Z,0.80
2023-03-18T10:27:30.183Z,0.63
2023-03-18T10:30:18.124Z,0.70
2023-03-18T10:32:58.881Z,0.95
2023-03-18T10:35:41.226Z,0.80
2023-03-18T10:38:37.119Z,0.70
2023-03-18T10:43:39.743Z,0.60
2023-03-18T10:46:11.405Z,0.80
2023-03-18T10:48:55.698Z,0.90
2023-03-18T10:51:32.675Z,0.90
2023-03-18T10:54:32.787Z,0.70
2023-03-18T10:56:59.332Z,0.75
2023-03-18T10:59:28.557Z,0.60
2023-03-18T11:02:04.509Z,0.60
2023-03-18T11:04:42.305Z,0.82
2023-03-18T11:07:17.171Z,0.70
2023-03-18T11:09:44.640Z,0.60
2023-03-18T11:12:23.350Z,0.93
2023-03-18T11:14:51.429Z,0.60
2023-03-18T11:17:33.680Z,0.65
2023-03-18T11:20:08.114Z,0.60
2023-03-18T11:22:36.727Z,0.80
2023-03-18T11:25:03.461Z,0.70
2023-03-18T11:27:40.532Z,0.90
2023-03-18T11:30:35.436Z,0.80
2023-03-18T11:33:05.030Z,1.00
2023-03-18T11:35:53.208Z,0.70
2023-03-18T11:38:21.467Z,0.70
2023-03-18T11:40:47.996Z,0.70
2023-03-18T11:43:24.496Z,0.80
2023-03-18T11:45:56.851Z,0.80
2023-03-18T11:48:34.138Z,0.70
2023-03-18T11:51:17.478Z,0.70
2023-03-18T11:54:19.480Z,0.70
2023-03-18T11:56:55.629Z,0.50
2023-03-18T11:59:52.600Z,0.55
2023-03-18T12:02:57.873Z,0.70
2023-03-18T12:05:51.908Z,0.70
2023-03-18T12:08:41.544Z,0.65
2023-03-18T12:11:41.277Z,0.80
2023-03-18T12:14:21.963Z,0.60
2023-03-18T12:16:59.090Z,0.60
2023-03-18T12:19:45.354Z,0.70
2023-03-18T12:22:25.211Z,0.80
2023-03-18T12:25:01.057Z,0.55
2023-03-18T12:27:40.410Z,0.75
2023-03-18T12:30:21.800Z,0.70
2023-03-18T12:32:57.531Z,0.70
2023-03-18T12:35:36.386Z,0.60
2023-03-18T12:38:13.948Z,0.60
2023-03-18T12:41:00.976Z,0.50
2023-03-18T12:43:43.783Z,0.70
2023-03-18T12:46:25.718Z,0.60
2023-03-18T12:48:58.127Z,0.60
2023-03-18T12:51:36.119Z,0.50
2023-03-18T12:54:18.151Z,0.50
2023-03-18T12:56:51.109Z,0.55
2023-03-18T12:59:28.728Z,0.70
2023-03-18T13:02:19.570Z,0.55
2023-03-18T13:04:55.625Z,0.65
2023-03-18T13:07:44.393Z,0.70
2023-03-18T13:10:23.352Z,0.50
2023-03-18T13:12:56.803Z,0.60
2023-03-18T13:15:31.004Z,0.60
2023-03-18T13:18:03.574Z,0.70
2023-03-18T13:20:35.427Z,0.50
2023-03-18T13:23:01.939Z,0.55
2023-03-18T13:25:48.927Z,0.63
2023-03-18T13:28:37.644Z,0.57
2023-03-18T13:31:15.536Z,0.60
2023-03-18T13:34:19.087Z,0.80
2023-03-18T13:36:55.898Z,0.57
2023-03-18T13:39:42.194Z,0.68
2023-03-18T13:42:18.955Z,0.60
2023-03-18T13:45:05.242Z,0.63
2023-03-18T13:47:34.805Z,0.50
2023-03-18T13:50:19.689Z,0.68
2023-03-18T13:52:47.894Z,0.55
2023-03-18T13:55:29.562Z,0.47
2023-03-18T13:58:22.840Z,0.50
2023-03-18T14:00:55.428Z,0.55
2023-03-18T14:03:52.068Z,0.57
2023-03-18T14:06:23.719Z,0.57
2023-03-18T14:08:51.776Z,0.50
2023-03-18T14:11:22.724Z,0.50
2023-03-18T14:13:54.749Z,0.47
2023-03-18T14:16:28.159Z,0.60
2023-03-18T14:19:02.074Z,0.55
2023-03-18T14:21:30.478Z,0.60
2023-03-18T14:24:15.433Z,0.60
2023-03-18T14:26:42.547Z,0.70
2023-03-18T14:29:09.370Z,0.50
2023-03-18T14:31:38.610Z,0.50
2023-03-18T14:34:22.784Z,0.60
2023-03-18T14:36:52.122Z,0.45
2023-03-18T14:39:31.542Z,0.60
2023-03-18T14:42:03.013Z,0.70
2023-03-18T14:44:52.643Z,0.60
2023-03-18T14:47:39.446Z,0.50
2023-03-18T14:50:16.398Z,0.50
2023-03-18T14:52:47.934Z,0.60
2023-03-18T14:55:19.326Z,0.55
2023-03-18T14:57:46.364Z,0.60
2023-03-18T15:00:17.813Z,0.50
2023-03-18T15:02:45.647Z,0.60
2023-03-18T15:05:17.778Z,0.50
2023-03-18T15:07:45.464Z,0.55
2023-03-18T15:10:19.912Z,0.50
2023-03-18T15:13:01.207Z,0.50
2023-03-18T15:15:27.872Z,0.43
2023-03-18T15:17:54.656Z,0.60
2023-03-18T15:20:23.031Z,0.50
2023-03-18T15:22:50.378Z,0.40
2023-03-18T15:25:20.585Z,0.50
2023-03-18T15:27:48.252Z,0.47
2023-03-18T15:30:26.545Z,0.40
2023-03-18T15:33:03.405Z,0.38
2023-03-18T15:35:31.970Z,0.60
2023-03-18T15:38:16.511Z,0.57
2023-03-18T15:40:49.407Z,0.50
2023-03-18T15:43:28.281Z,0.50
2023-03-18T15:45:58.770Z,0.60
2023-03-18T15:48:37.602Z,0.40
2023-03-18T15:51:06.521Z,0.50
2023-03-18T15:53:44.874Z,0.30
2023-03-18T15:56:33.477Z,0.50
2023-03-18T15:59:09.008Z,0.52
2023-03-18T16:01:36.038Z,0.40
2023-03-18T16:04:06.343Z,0.50
2023-03-18T16:06:34.471Z,0.50
2023-03-18T16:09:01.975Z,0.50
2023-03-18T16:11:28.819Z,0.40
2023-03-18T16:13:55.434Z,0.50
2023-03-18T16:16:28.057Z,0.40
2023-03-18T16:18:57.120Z,0.40
2023-03-18T16:21:23.614Z,0.73
2023-03-18T16:23:50.126Z,0.60
2023-03-18T16:26:17.695Z,0.30
2023-03-18T16:28:47.066Z,0.40
2023-03-18T16:31:15.297Z,0.40
2023-03-18T16:33:42.518Z,0.40
2023-03-18T16:36:32.116Z,0.40
2023-03-18T16:38:58.605Z,0.40
2023-03-18T16:41:25.846Z,0.40
2023-03-18T16:43:52.668Z,0.30
2023-03-18T16:46:19.342Z,0.43
2023-03-18T16:48:49.267Z,0.50
2023-03-18T16:51:15.763Z,0.40
2023-03-18T16:53:42.530Z,0.40
2023-03-18T16:56:18.960Z,0.40
2023-03-18T16:58:45.682Z,0.47
2023-03-18T17:01:16.526Z,0.40
2023-03-18T17:03:44.200Z,0.40
2023-03-18T17:06:10.933Z,0.40
2023-03-18T17:08:37.758Z,0.38
2023-03-18T17:11:04.834Z,0.30
2023-03-18T17:13:34.284Z,0.45
2023-03-18T17:16:01.693Z,0.45
2023-03-18T17:18:28.171Z,0.50
2023-03-18T17:20:54.801Z,0.40
2023-03-18T17:23:24.517Z,0.40
2023-03-18T17:26:02.788Z,0.32
2023-03-18T17:28:37.303Z,0.50
2023-03-18T17:31:04.282Z,0.30
2023-03-18T17:33:34.657Z,0.40
2023-03-18T17:36:01.925Z,0.45
2023-03-18T17:38:31.004Z,0.50
2023-03-18T17:40:58.946Z,0.30
2023-03-18T17:43:34.055Z,0.30
2023-03-18T17:48:30.230Z,0.30
2023-03-18T17:50:59.395Z,0.40
2023-03-18T17:53:38.108Z,0.40
2023-03-18T17:56:07.758Z,0.40
2023-03-18T17:58:35.271Z,0.40
2023-03-18T18:01:06.673Z,0.30
2023-03-18T18:03:35.072Z,0.45
2023-03-18T18:06:03.420Z,0.45
2023-03-18T18:08:31.563Z,0.73
2023-03-18T18:11:04.660Z,0.40
2023-03-18T18:13:31.349Z,0.40
2023-03-18T18:15:57.877Z,0.40
2023-03-18T18:18:25.489Z,0.43
2023-03-18T18:20:57.836Z,0.43
2023-03-18T18:23:30.323Z,0.40
2023-03-18T18:26:05.350Z,0.30
2023-03-18T18:31:01.024Z,0.30
2023-03-18T18:33:27.935Z,0.47
2023-03-18T18:35:54.685Z,0.40
2023-03-18T18:38:21.158Z,0.38
2023-03-18T18:40:49.609Z,0.40
2023-03-18T18:43:16.041Z,0.40
2023-03-18T18:45:43.258Z,0.38
2023-03-18T18:48:12.871Z,0.50
2023-03-18T18:50:40.012Z,0.40
2023-03-18T18:53:26.917Z,0.45
2023-03-18T18:55:56.064Z,0.40
2023-03-18T18:58:28.583Z,0.30
2023-03-18T19:00:55.938Z,0.40
2023-03-18T19:03:24.334Z,0.40
2023-03-18T19:05:53.154Z,0.40
2023-03-18T19:08:25.033Z,0.43
2023-03-18T19:10:53.382Z,0.60
2023-03-18T19:13:19.944Z,0.50
2023-03-18T19:15:48.553Z,0.55
2023-03-18T19:18:23.560Z,0.50
2023-03-18T19:20:51.747Z,0.40
2023-03-18T19:23:23.011Z,0.40
2023-03-18T19:25:49.737Z,0.43
2023-03-18T19:28:47.651Z,0.50
2023-03-18T19:31:26.841Z,0.40
2023-03-18T19:33:53.933Z,0.50
2023-03-18T19:36:29.351Z,0.40
2023-03-18T19:38:59.171Z,0.40
2023-03-18T19:41:26.000Z,0.40
2023-03-18T19:43:54.355Z,0.50
2023-03-18T19:46:31.146Z,0.40
2023-03-18T19:48:57.629Z,0.40
2023-03-18T19:51:24.098Z,0.40
2023-03-18T19:53:50.809Z,0.50
2023-03-18T19:56:28.690Z,0.40
2023-03-18T19:58:58.234Z,0.40
2023-03-18T20:01:27.057Z,0.47
2023-03-18T20:03:58.321Z,0.50
2023-03-18T20:06:26.280Z,0.50
2023-03-18T20:08:52.947Z,0.50
2023-03-18T20:11:21.004Z,0.45
2023-03-18T20:13:47.865Z,0.47
2023-03-18T20:16:16.318Z,0.50
2023-03-18T20:18:44.017Z,0.50
2023-03-18T20:21:25.785Z,0.50
2023-03-18T20:23:53.842Z,0.40
2023-03-18T20:26:21.841Z,0.50
2023-03-18T20:28:53.605Z,0.40
2023-03-18T20:31:20.690Z,0.52
2023-03-18T20:33:47.337Z,0.40
2023-03-18T20:36:17.134Z,0.45
2023-03-18T20:38:47.231Z,0.50
2023-03-18T20:41:18.439Z,0.50
2023-03-18T20:43:46.116Z,0.50
2023-03-18T20:46:14.549Z,0.50
2023-03-18T20:48:42.099Z,0.45
2023-03-18T20:51:31.260Z,0.57
2023-03-18T20:53:58.089Z,0.40
2023-03-18T20:56:24.988Z,0.40
2023-03-18T20:58:51.479Z,0.52
2023-03-18T21:01:18.408Z,0.40
2023-03-18T21:03:45.567Z,0.60
2023-03-18T21:06:14.957Z,0.40
2023-03-18T21:08:41.944Z,0.40
2023-03-18T21:11:27.116Z,0.50
2023-03-18T21:13:53.590Z,0.60
2023-03-18T21:16:21.122Z,0.40
2023-03-18T21:18:49.502Z,0.50
2023-03-18T21:21:24.988Z,0.43
2023-03-18T21:23:53.350Z,0.52
2023-03-18T21:26:20.598Z,0.50
2023-03-18T21:28:47.139Z,0.45
2023-03-18T21:31:31.335Z,0.50
2023-03-18T21:33:57.936Z,0.50
2023-03-18T21:36:24.562Z,0.70
2023-03-18T21:38:51.132Z,0.70
2023-03-18T21:41:36.169Z,0.60
2023-03-18T21:44:02.987Z,0.65
2023-03-18T21:46:30.582Z,0.43
2023-03-18T21:48:57.282Z,0.50
2023-03-18T21:51:39.474Z,0.55
2023-03-18T21:54:16.611Z,0.40
2023-03-18T21:56:43.069Z,0.60
2023-03-18T21:59:09.639Z,0.50
2023-03-18T22:01:36.235Z,0.60
2023-03-18T22:04:02.807Z,0.55
2023-03-18T22:06:29.519Z,0.50
2023-03-18T22:08:57.307Z,0.63
2023-03-18T22:11:23.880Z,0.63
2023-03-18T22:13:50.779Z,0.60
2023-03-18T22:16:18.764Z,0.57
2023-03-18T22:18:47.350Z,0.32
2023-03-18T22:21:19.327Z,0.40
2023-03-18T22:23:46.364Z,0.43
2023-03-18T22:26:15.866Z,0.50
2023-03-18T22:28:43.248Z,0.40
2023-03-18T22:31:25.609Z,0.40
2023-03-18T22:33:52.654Z,0.38
2023-03-18T22:36:21.784Z,0.50
2023-03-18T22:38:49.406Z,0.40
2023-03-18T22:41:22.695Z,0.43
2023-03-18T22:43:50.167Z,0.50
2023-03-18T22:46:17.300Z,0.40
2023-03-18T22:48:43.818Z,0.60
2023-03-18T22:51:27.741Z,0.60
2023-03-18T22:53:55.294Z,0.70
2023-03-18T22:56:23.203Z,0.50
2023-03-18T22:58:49.913Z,0.40
2023-03-18T23:01:19.492Z,0.40
2023-03-18T23:03:47.684Z,0.50
2023-03-18T23:06:20.079Z,0.30
2023-03-18T23:08:47.295Z,0.47
2023-03-18T23:11:15.079Z,0.50
2023-03-18T23:13:43.768Z,0.57
2023-03-18T23:16:21.931Z,0.40
2023-03-18T23:18:49.357Z,0.38
2023-03-18T23:21:18.386Z,0.40
2023-03-18T23:23:45.025Z,0.40
2023-03-18T23:26:11.849Z,0.60
2023-03-18T23:28:44.413Z,0.47
2023-03-18T23:31:11.856Z,0.52
2023-03-18T23:33:38.687Z,0.50
2023-03-18T23:36:05.661Z,0.60
2023-03-18T23:38:32.216Z,0.30
2023-03-18T23:40:58.730Z,0.43
2023-03-18T23:43:25.734Z,0.30
2023-03-18T23:45:52.363Z,0.50
2023-03-18T23:48:18.949Z,0.40
2023-03-18T23:50:46.426Z,0.32
2023-03-18T23:53:12.999Z,0.40
2023-03-18T23:55:39.558Z,0.40
2023-03-18T23:58:06.247Z,0.40
